createdAt,value
2022-12-04T00:01:16.236Z,6.75
2022-12-04T00:02:27.810Z,6.90
2022-12-04T00:03:39.643Z,6.20
2022-12-04T00:04:51.175Z,5.82
2022-12-04T00:06:10.271Z,7.03
2022-12-04T00:07:21.777Z,6.75
2022-12-04T00:08:33.493Z,5.72
2022-12-04T00:09:45.004Z,5.82
2022-12-04T00:10:56.480Z,4.85
2022-12-04T00:12:08.006Z,4.45
2022-12-04T00:13:19.434Z,5.50
2022-12-04T00:14:30.914Z,5.55
2022-12-04T00:15:43.153Z,5.90
2022-12-04T00:16:54.657Z,4.82
2022-12-04T00:18:06.152Z,6.03
2022-12-04T00:19:17.676Z,4.55
2022-12-04T00:20:29.133Z,5.20
2022-12-04T00:21:40.608Z,5.68
2022-12-04T00:22:52.020Z,6.03
2022-12-04T00:24:03.682Z,5.25
2022-12-04T00:25:15.199Z,5.25
2022-12-04T00:26:27.334Z,5.07
2022-12-04T00:27:38.836Z,6.05
2022-12-04T00:28:50.594Z,5.88
2022-12-04T00:30:02.144Z,5.40
2022-12-04T00:31:15.683Z,6.93
2022-12-04T00:32:27.145Z,6.85
2022-12-04T00:33:38.637Z,6.30
2022-12-04T00:34:52.138Z,6.53
2022-12-04T00:36:05.047Z,5.57
2022-12-04T00:37:16.866Z,6.50
2022-12-04T00:38:28.379Z,6.05
2022-12-04T00:39:39.825Z,6.07
2022-12-04T00:40:51.777Z,5.90
2022-12-04T00:42:03.315Z,6.05
2022-12-04T00:43:14.757Z,5.18
2022-12-04T00:44:26.209Z,5.40
2022-12-04T00:45:37.676Z,6.05
2022-12-04T00:46:49.120Z,6.90
2022-12-04T00:48:00.545Z,6.03
2022-12-04T00:49:12.038Z,5.35
2022-12-04T00:50:23.572Z,6.22
2022-12-04T00:51:35.040Z,6.55
2022-12-04T00:52:46.508Z,6.75
2022-12-04T00:53:57.921Z,7.70
2022-12-04T00:55:09.619Z,7.25
2022-12-04T00:56:25.917Z,7.55
2022-12-04T00:57:37.354Z,6.60
2022-12-04T00:58:51.573Z,6.03
2022-12-04T01:00:04.829Z,7.07
2022-12-04T01:01:17.420Z,7.07
2022-12-04T01:02:30.052Z,6.07
2022-12-04T01:03:42.131Z,5.93
2022-12-04T01:04:53.557Z,5.82
2022-12-04T01:06:05.694Z,6.20
2022-12-04T01:07:17.169Z,6.75
2022-12-04T01:08:28.776Z,5.90
2022-12-04T01:09:40.201Z,5.70
2022-12-04T01:10:51.742Z,4.93
2022-12-04T01:12:03.291Z,5.45
2022-12-04T01:13:14.934Z,5.38
2022-12-04T01:14:26.353Z,6.03
2022-12-04T01:15:41.544Z,5.63
2022-12-04T01:16:53.126Z,5.97
2022-12-04T01:18:04.671Z,5.50
2022-12-04T01:19:16.116Z,7.10
2022-12-04T01:20:27.580Z,5.82
2022-12-04T01:21:39.359Z,6.30
2022-12-04T01:22:50.866Z,7.03
2022-12-04T01:24:02.366Z,7.68
2022-12-04T01:25:13.874Z,6.80
2022-12-04T01:26:25.693Z,7.35
2022-12-04T01:27:37.171Z,8.40
2022-12-04T01:28:48.630Z,8.10
2022-12-04T01:30:00.118Z,7.47
2022-12-04T01:31:13.476Z,8.43
2022-12-04T01:32:25.039Z,6.90
2022-12-04T01:33:37.133Z,6.90
2022-12-04T01:34:48.609Z,6.40
2022-12-04T01:36:00.902Z,6.43
2022-12-04T01:37:12.350Z,6.63
2022-12-04T01:38:24.466Z,5.97
2022-12-04T01:39:36.443Z,5.65
2022-12-04T01:40:48.292Z,6.15
2022-12-04T01:41:59.718Z,5.93
2022-12-04T01:43:12.471Z,6.10
2022-12-04T01:44:25.045Z,5.60
2022-12-04T01:45:43.456Z,6.10
2022-12-04T01:46:56.086Z,5.65
2022-12-04T01:48:13.908Z,4.95
2022-12-04T01:49:36.562Z,5.80
2022-12-04T01:50:49.409Z,6.30
2022-12-04T01:52:23.656Z,7.00
2022-12-04T01:53:36.155Z,6.50
2022-12-04T01:54:50.111Z,5.65
2022-12-04T01:56:02.903Z,5.68
2022-12-04T01:57:16.093Z,6.18
2022-12-04T01:58:31.144Z,7.22
2022-12-04T01:59:55.193Z,6.47
2022-12-04T02:01:09.076Z,6.50
2022-12-04T02:02:29.943Z,6.57
2022-12-04T02:03:41.495Z,6.80
2022-12-04T02:04:53.459Z,6.40
2022-12-04T02:06:05.264Z,5.93
2022-12-04T02:07:16.725Z,5.88
2022-12-04T02:08:28.605Z,4.82
2022-12-04T02:09:41.033Z,5.10
2022-12-04T02:11:18.858Z,6.00
2022-12-04T02:12:39.143Z,5.20
2022-12-04T02:14:09.367Z,4.93
2022-12-04T02:15:36.060Z,5.53
2022-12-04T02:16:50.757Z,4.47
2022-12-04T02:18:20.674Z,5.05
2022-12-04T02:19:39.533Z,4.25
2022-12-04T02:20:56.977Z,5.10
2022-12-04T02:22:27.227Z,5.53
2022-12-04T02:23:57.018Z,4.57
2022-12-04T02:25:17.693Z,5.38
2022-12-04T02:26:32.338Z,6.13
2022-12-04T02:27:55.778Z,5.13
2022-12-04T02:29:07.185Z,5.57
2022-12-04T02:30:18.912Z,4.85
2022-12-04T02:31:32.496Z,3.95
2022-12-04T02:32:46.382Z,4.25
2022-12-04T02:34:01.454Z,4.50
2022-12-04T02:35:19.581Z,4.32
2022-12-04T02:36:36.474Z,4.88
2022-12-04T02:37:51.643Z,4.05
2022-12-04T02:39:26.111Z,4.55
2022-12-04T02:40:51.458Z,3.47
2022-12-04T02:42:18.599Z,3.20
2022-12-04T02:43:32.857Z,3.60
2022-12-04T02:44:47.104Z,3.42
2022-12-04T02:46:05.612Z,3.78
2022-12-04T02:47:18.377Z,3.28
2022-12-04T02:48:31.931Z,3.28
2022-12-04T02:50:03.597Z,3.30
2022-12-04T02:51:16.171Z,2.97
2022-12-04T02:52:35.597Z,3.40
2022-12-04T02:53:55.179Z,3.40
2022-12-04T02:55:08.956Z,3.55
2022-12-04T02:56:23.641Z,4.07
2022-12-04T02:57:37.192Z,3.97
2022-12-04T02:58:54.161Z,3.38
2022-12-04T03:00:08.117Z,4.40
2022-12-04T03:01:23.576Z,4.45
2022-12-04T03:02:55.396Z,3.42
2022-12-04T03:04:15.830Z,3.20
2022-12-04T03:05:36.591Z,3.22
2022-12-04T03:06:50.978Z,3.35
2022-12-04T03:08:05.879Z,3.42
2022-12-04T03:09:17.417Z,2.85
2022-12-04T03:10:31.234Z,3.38
2022-12-04T03:11:46.033Z,3.05
2022-12-04T03:12:57.478Z,3.67
2022-12-04T03:14:14.688Z,2.88
2022-12-04T03:15:28.729Z,3.13
2022-12-04T03:16:41.168Z,4.05
2022-12-04T03:17:55.657Z,3.47
2022-12-04T03:19:18.585Z,3.92
2022-12-04T03:20:31.520Z,3.72
2022-12-04T03:21:48.198Z,3.38
2022-12-04T03:23:03.139Z,4.25
2022-12-04T03:24:14.538Z,3.40
2022-12-04T03:25:30.100Z,3.85
2022-12-04T03:26:54.629Z,2.97
2022-12-04T03:28:10.027Z,3.35
2022-12-04T03:29:23.548Z,3.95
2022-12-04T03:30:39.394Z,3.55
2022-12-04T03:31:53.535Z,3.55
2022-12-04T03:33:13.237Z,3.58
2022-12-04T03:34:37.541Z,3.20
2022-12-04T03:35:52.275Z,3.75
2022-12-04T03:37:08.354Z,3.92
2022-12-04T03:38:22.632Z,3.97
2022-12-04T03:39:49.149Z,2.88
2022-12-04T03:41:18.046Z,3.03
2022-12-04T03:42:47.579Z,3.10
2022-12-04T03:44:04.719Z,3.60
2022-12-04T03:45:22.479Z,4.75
2022-12-04T03:46:40.170Z,3.50
2022-12-04T03:47:55.323Z,3.58
2022-12-04T03:49:17.027Z,3.67
2022-12-04T03:50:37.544Z,3.92
2022-12-04T03:51:52.616Z,3.78
2022-12-04T03:53:12.713Z,4.05
2022-12-04T03:54:28.468Z,3.58
2022-12-04T03:55:49.731Z,3.88
2022-12-04T03:57:11.517Z,3.42
2022-12-04T03:58:25.983Z,3.25
2022-12-04T03:59:39.093Z,3.80
2022-12-04T04:00:52.001Z,3.92
2022-12-04T04:02:05.074Z,4.55
2022-12-04T04:03:20.024Z,4.20
2022-12-04T04:04:33.883Z,4.15
2022-12-04T04:05:47.430Z,4.10
2022-12-04T04:07:05.024Z,4.25
2022-12-04T04:08:28.008Z,3.85
2022-12-04T04:09:43.809Z,4.47
2022-12-04T04:11:10.077Z,4.28
2022-12-04T04:12:23.655Z,5.85
2022-12-04T04:13:57.934Z,5.63
2022-12-04T04:15:32.469Z,5.00
2022-12-04T04:17:05.371Z,5.05
2022-12-04T04:18:35.875Z,5.07
2022-12-04T04:20:08.761Z,4.47
2022-12-04T04:21:41.064Z,4.78
2022-12-04T04:23:13.392Z,4.93
2022-12-04T04:24:27.612Z,4.47
2022-12-04T04:25:40.459Z,4.68
2022-12-04T04:26:51.993Z,4.50
2022-12-04T04:28:03.436Z,5.53
2022-12-04T04:29:15.040Z,5.10
2022-12-04T04:30:27.812Z,4.18
2022-12-04T04:31:48.244Z,6.03
2022-12-04T04:33:16.291Z,4.68
2022-12-04T04:34:27.788Z,4.85
2022-12-04T04:35:47.841Z,4.40
2022-12-04T04:37:03.783Z,4.80
2022-12-04T04:38:25.417Z,5.43
2022-12-04T04:39:39.861Z,4.60
2022-12-04T04:41:09.944Z,4.75
2022-12-04T04:42:24.623Z,4.53
2022-12-04T04:43:40.075Z,5.45
2022-12-04T04:44:54.287Z,4.38
2022-12-04T04:46:07.277Z,4.35
2022-12-04T04:47:23.850Z,3.53
2022-12-04T04:48:39.549Z,4.05
2022-12-04T04:49:52.176Z,4.35
2022-12-04T04:51:04.527Z,3.80
2022-12-04T04:52:17.635Z,4.45
2022-12-04T04:53:49.736Z,4.22
2022-12-04T04:55:01.535Z,4.75
2022-12-04T04:56:13.120Z,4.45
2022-12-04T04:57:28.544Z,4.60
2022-12-04T04:58:40.028Z,3.58
2022-12-04T04:59:51.463Z,5.00
2022-12-04T05:01:05.003Z,3.97
2022-12-04T05:02:16.513Z,6.72
2022-12-04T05:03:28.280Z,7.13
2022-12-04T05:04:39.759Z,4.65
2022-12-04T05:05:51.270Z,5.00
2022-12-04T05:07:02.701Z,4.03
2022-12-04T05:08:14.212Z,4.75
2022-12-04T05:09:26.433Z,4.65
2022-12-04T05:10:37.920Z,5.55
2022-12-04T05:11:49.412Z,4.25
2022-12-04T05:13:00.855Z,3.63
2022-12-04T05:14:12.388Z,4.53
2022-12-04T05:15:23.847Z,4.68
2022-12-04T05:16:35.443Z,4.60
2022-12-04T05:17:46.926Z,4.32
2022-12-04T05:19:17.556Z,4.15
2022-12-04T05:20:29.082Z,4.60
2022-12-04T05:21:41.692Z,4.20
2022-12-04T05:22:53.600Z,4.68
2022-12-04T05:24:05.152Z,4.13
2022-12-04T05:25:16.605Z,5.00
2022-12-04T05:26:28.184Z,6.28
2022-12-04T05:27:39.684Z,4.97
2022-12-04T05:28:51.167Z,6.07
2022-12-04T05:30:02.747Z,5.68
2022-12-04T05:31:14.266Z,5.60
2022-12-04T05:32:26.663Z,6.40
2022-12-04T05:33:38.151Z,6.90
2022-12-04T05:34:50.465Z,7.40
2022-12-04T05:36:03.398Z,8.05
2022-12-04T05:37:14.838Z,8.75
2022-12-04T05:38:26.317Z,8.98
2022-12-04T05:39:37.815Z,5.82
2022-12-04T05:40:49.278Z,3.65
2022-12-04T05:42:00.728Z,4.25
2022-12-04T05:43:12.386Z,3.88
2022-12-04T05:44:23.976Z,3.80
2022-12-04T05:45:35.491Z,3.97
2022-12-04T05:46:47.089Z,3.95
2022-12-04T05:47:59.141Z,4.35
2022-12-04T05:49:10.623Z,5.57
2022-12-04T05:50:22.118Z,5.25
2022-12-04T05:51:33.558Z,4.93
2022-12-04T05:52:45.041Z,4.75
2022-12-04T05:53:56.499Z,4.70
2022-12-04T05:55:08.120Z,5.45
2022-12-04T05:56:19.985Z,6.30
2022-12-04T05:57:31.484Z,4.57
2022-12-04T05:58:42.954Z,6.55
2022-12-04T05:59:54.731Z,7.07
2022-12-04T06:01:13.717Z,7.82
2022-12-04T06:02:25.329Z,6.38
2022-12-04T06:03:36.950Z,5.38
2022-12-04T06:04:48.454Z,5.32
2022-12-04T06:05:59.953Z,5.05
2022-12-04T06:07:11.776Z,15.63
2022-12-04T06:08:23.218Z,18.30
2022-12-04T06:09:34.683Z,6.35
2022-12-04T06:10:46.160Z,5.28
2022-12-04T06:11:58.105Z,6.15
2022-12-04T06:13:09.669Z,4.85
2022-12-04T06:14:21.186Z,4.30
2022-12-04T06:15:36.453Z,6.15
2022-12-04T06:16:48.129Z,5.18
2022-12-04T06:17:59.913Z,5.15
2022-12-04T06:19:13.336Z,7.68
2022-12-04T06:20:24.877Z,6.40
2022-12-04T06:21:37.933Z,7.88
2022-12-04T06:22:49.513Z,6.03
2022-12-04T06:24:01.256Z,6.03
2022-12-04T06:25:12.811Z,5.85
2022-12-04T06:26:24.699Z,5.55
2022-12-04T06:27:36.164Z,7.25
2022-12-04T06:28:47.716Z,14.02
2022-12-04T06:29:59.500Z,11.25
2022-12-04T06:31:12.623Z,18.30
2022-12-04T06:32:24.187Z,8.20
2022-12-04T06:33:35.962Z,7.82
2022-12-04T06:34:49.645Z,6.43
2022-12-04T06:36:02.087Z,10.95
2022-12-04T06:37:13.566Z,7.80
2022-12-04T06:38:25.260Z,5.72
2022-12-04T06:39:36.751Z,6.50
2022-12-04T06:40:48.235Z,5.45
2022-12-04T06:41:59.726Z,5.28
2022-12-04T06:43:11.204Z,6.32
2022-12-04T06:44:22.729Z,4.97
2022-12-04T06:45:34.222Z,5.65
2022-12-04T06:46:47.334Z,8.18
2022-12-04T06:47:59.518Z,6.00
2022-12-04T06:49:11.030Z,5.30
2022-12-04T06:50:22.507Z,6.75
2022-12-04T06:51:35.603Z,8.02
2022-12-04T06:52:47.051Z,22.75
2022-12-04T06:53:58.830Z,20.67
2022-12-04T06:55:10.321Z,22.70
2022-12-04T06:56:23.387Z,14.25
2022-12-04T06:57:34.943Z,7.30
2022-12-04T06:58:50.857Z,6.32
2022-12-04T07:00:02.502Z,6.25
2022-12-04T07:01:15.142Z,9.55
2022-12-04T07:02:26.667Z,7.38
2022-12-04T07:03:38.380Z,9.98
2022-12-04T07:04:49.911Z,9.88
2022-12-04T07:06:10.228Z,8.60
2022-12-04T07:07:21.749Z,10.48
2022-12-04T07:08:33.296Z,14.45
2022-12-04T07:09:45.688Z,15.13
2022-12-04T07:10:59.293Z,14.40
2022-12-04T07:12:10.997Z,12.88
2022-12-04T07:13:22.533Z,19.40
2022-12-04T07:14:34.256Z,23.38
2022-12-04T07:15:45.732Z,22.58
2022-12-04T07:16:57.346Z,10.57
2022-12-04T07:18:08.984Z,6.70
2022-12-04T07:19:20.632Z,7.53
2022-12-04T07:20:32.301Z,6.68
2022-12-04T07:21:44.228Z,11.43
2022-12-04T07:22:55.806Z,12.45
2022-12-04T07:24:07.485Z,11.57
2022-12-04T07:25:19.123Z,12.25
2022-12-04T07:26:31.011Z,8.07
2022-12-04T07:27:42.524Z,6.82
2022-12-04T07:28:54.813Z,6.03
2022-12-04T07:30:10.010Z,7.38
2022-12-04T07:31:27.159Z,12.25
2022-12-04T07:32:38.738Z,15.88
2022-12-04T07:33:50.719Z,10.32
2022-12-04T07:35:02.628Z,15.57
2022-12-04T07:36:19.712Z,11.77
2022-12-04T07:37:31.657Z,13.30
2022-12-04T07:38:43.595Z,11.70
2022-12-04T07:39:55.265Z,13.63
2022-12-04T07:41:07.973Z,15.07
2022-12-04T07:42:24.280Z,9.77
2022-12-04T07:43:35.839Z,8.38
2022-12-04T07:44:47.445Z,9.07
2022-12-04T07:45:59.675Z,8.55
2022-12-04T07:47:11.303Z,9.60
2022-12-04T07:48:23.002Z,11.48
2022-12-04T07:49:34.495Z,11.35
2022-12-04T07:50:46.061Z,13.07
2022-12-04T07:51:57.543Z,17.13
2022-12-04T07:53:09.081Z,22.58
2022-12-04T07:54:20.657Z,22.50
2022-12-04T07:55:32.306Z,23.30
2022-12-04T07:56:43.921Z,23.63
2022-12-04T07:57:55.494Z,25.60
2022-12-04T07:59:07.245Z,22.08
2022-12-04T08:00:19.291Z,14.27
2022-12-04T08:01:31.482Z,20.77
2022-12-04T08:02:43.272Z,19.20
2022-12-04T08:03:56.450Z,15.38
2022-12-04T08:05:08.179Z,14.60
2022-12-04T08:06:21.022Z,13.00
2022-12-04T08:07:32.678Z,17.95
2022-12-04T08:08:44.219Z,16.23
2022-12-04T08:09:56.140Z,14.10
2022-12-04T08:11:08.622Z,13.80
2022-12-04T08:12:20.176Z,11.45
2022-12-04T08:13:31.776Z,9.57
2022-12-04T08:14:43.332Z,8.73
2022-12-04T08:15:54.856Z,10.02
2022-12-04T08:17:06.464Z,9.25
2022-12-04T08:18:18.184Z,11.90
2022-12-04T08:19:29.804Z,17.23
2022-12-04T08:20:41.431Z,16.40
2022-12-04T08:21:54.274Z,14.57
2022-12-04T08:23:05.867Z,11.35
2022-12-04T08:24:17.420Z,12.00
2022-12-04T08:25:29.017Z,7.65
2022-12-04T08:26:40.546Z,6.30
2022-12-04T08:27:52.270Z,6.40
2022-12-04T08:29:04.052Z,11.48
2022-12-04T08:30:15.722Z,21.10
2022-12-04T08:31:28.841Z,18.80
2022-12-04T08:32:40.515Z,13.60
2022-12-04T08:33:53.534Z,10.60
2022-12-04T08:35:05.289Z,6.45
2022-12-04T08:36:18.027Z,20.85
2022-12-04T08:37:30.031Z,20.70
2022-12-04T08:38:41.880Z,7.47
2022-12-04T08:39:53.801Z,7.30
2022-12-04T08:41:06.404Z,7.60
2022-12-04T08:42:17.929Z,6.28
2022-12-04T08:43:29.711Z,7.25
2022-12-04T08:44:41.493Z,8.43
2022-12-04T08:45:57.451Z,7.75
2022-12-04T08:47:09.166Z,6.82
2022-12-04T08:48:20.786Z,8.90
2022-12-04T08:49:32.416Z,11.60
2022-12-04T08:50:46.953Z,9.10
2022-12-04T08:51:58.438Z,7.22
2022-12-04T08:53:10.119Z,8.98
2022-12-04T08:54:21.644Z,12.23
2022-12-04T08:55:34.848Z,10.10
2022-12-04T08:56:46.530Z,10.38
2022-12-04T08:57:57.980Z,9.40
2022-12-04T08:59:12.004Z,7.97
2022-12-04T09:00:25.974Z,7.82
2022-12-04T09:01:37.587Z,9.43
2022-12-04T09:02:49.940Z,8.43
2022-12-04T09:04:01.649Z,8.20
2022-12-04T09:05:13.282Z,7.07
2022-12-04T09:06:24.909Z,8.45
2022-12-04T09:07:36.463Z,7.03
2022-12-04T09:08:48.067Z,6.85
2022-12-04T09:09:59.761Z,6.47
2022-12-04T09:11:12.868Z,6.70
2022-12-04T09:12:24.587Z,7.15
2022-12-04T09:13:36.421Z,7.97
2022-12-04T09:14:48.115Z,8.43
2022-12-04T09:16:03.100Z,10.25
2022-12-04T09:17:14.728Z,5.80
2022-12-04T09:18:26.377Z,7.68
2022-12-04T09:19:37.956Z,8.05
2022-12-04T09:20:57.250Z,11.48
2022-12-04T09:22:08.999Z,18.70
2022-12-04T09:23:20.617Z,7.80
2022-12-04T09:24:32.412Z,7.25
2022-12-04T09:25:43.968Z,7.25
2022-12-04T09:26:55.611Z,9.07
2022-12-04T09:28:07.125Z,7.93
2022-12-04T09:29:18.624Z,8.07
2022-12-04T09:30:30.304Z,8.98
2022-12-04T09:31:41.967Z,9.50
2022-12-04T09:32:53.612Z,9.23
2022-12-04T09:34:05.286Z,8.45
2022-12-04T09:35:16.811Z,11.23
2022-12-04T09:36:28.992Z,9.25
2022-12-04T09:37:40.589Z,9.55
2022-12-04T09:38:53.090Z,13.02
2022-12-04T09:40:05.034Z,8.57
2022-12-04T09:41:31.773Z,6.32
2022-12-04T09:42:46.109Z,4.75
2022-12-04T09:44:00.038Z,3.85
2022-12-04T09:45:19.197Z,4.43
2022-12-04T09:46:42.661Z,6.28
2022-12-04T09:47:56.881Z,5.38
2022-12-04T09:49:16.973Z,6.57
2022-12-04T09:50:40.430Z,5.93
2022-12-04T09:51:53.336Z,8.00
2022-12-04T09:53:13.799Z,9.40
2022-12-04T09:54:28.409Z,6.38
2022-12-04T09:55:44.861Z,6.43
2022-12-04T09:57:01.447Z,5.75
2022-12-04T09:58:19.591Z,8.85
2022-12-04T09:59:32.093Z,13.02
2022-12-04T10:00:46.131Z,8.73
2022-12-04T10:02:03.307Z,11.00
2022-12-04T10:03:17.009Z,12.55
2022-12-04T10:04:28.748Z,7.75
2022-12-04T10:05:40.264Z,6.55
2022-12-04T10:06:51.723Z,8.23
2022-12-04T10:08:07.051Z,7.97
2022-12-04T10:09:37.178Z,7.03
2022-12-04T10:11:08.932Z,7.53
2022-12-04T10:12:38.931Z,8.50
2022-12-04T10:13:50.512Z,7.95
2022-12-04T10:15:25.031Z,5.30
2022-12-04T10:16:46.842Z,4.80
2022-12-04T10:18:01.151Z,5.03
2022-12-04T10:19:27.642Z,4.72
2022-12-04T10:20:48.526Z,8.15
2022-12-04T10:22:08.592Z,7.32
2022-12-04T10:23:23.045Z,4.93
2022-12-04T10:24:41.302Z,3.83
2022-12-04T10:25:53.878Z,5.57
2022-12-04T10:27:11.214Z,7.03
2022-12-04T10:28:33.418Z,6.43
2022-12-04T10:29:47.094Z,7.20
2022-12-04T10:31:00.978Z,8.35
2022-12-04T10:32:24.537Z,7.20
2022-12-04T10:33:56.328Z,7.80
2022-12-04T10:35:28.787Z,10.88
2022-12-04T10:36:41.711Z,12.82
2022-12-04T10:38:04.302Z,10.13
2022-12-04T10:39:25.948Z,9.55
2022-12-04T10:40:44.157Z,7.38
2022-12-04T10:42:05.575Z,6.38
2022-12-04T10:43:24.808Z,4.18
2022-12-04T10:44:36.306Z,3.63
2022-12-04T10:45:47.828Z,4.63
2022-12-04T10:47:00.902Z,5.38
2022-12-04T10:48:18.653Z,4.18
2022-12-04T10:49:31.982Z,3.28
2022-12-04T10:50:44.082Z,2.92
2022-12-04T10:51:55.960Z,5.28
2022-12-04T10:53:13.457Z,3.65
2022-12-04T10:54:30.681Z,2.78
2022-12-04T10:55:42.322Z,4.90
2022-12-04T10:56:58.723Z,8.25
2022-12-04T10:58:17.871Z,8.10
2022-12-04T10:59:30.250Z,5.50
2022-12-04T11:00:41.815Z,6.45
2022-12-04T11:02:04.792Z,6.00
2022-12-04T11:03:27.045Z,4.35
2022-12-04T11:04:40.772Z,3.95
2022-12-04T11:05:56.804Z,3.15
2022-12-04T11:07:18.836Z,3.92
2022-12-04T11:08:38.617Z,3.78
2022-12-04T11:09:57.716Z,4.45
2022-12-04T11:11:11.915Z,3.83
2022-12-04T11:12:23.741Z,3.25
2022-12-04T11:13:35.227Z,3.92
2022-12-04T11:14:47.361Z,3.08
2022-12-04T11:16:03.397Z,3.08
2022-12-04T11:17:19.214Z,4.47
2022-12-04T11:18:32.213Z,3.45
2022-12-04T11:19:43.949Z,4.20
2022-12-04T11:21:00.604Z,3.88
2022-12-04T11:22:16.259Z,4.43
2022-12-04T11:23:30.062Z,3.70
2022-12-04T11:24:42.906Z,5.68
2022-12-04T11:25:59.399Z,5.90
2022-12-04T11:27:19.897Z,6.35
2022-12-04T11:28:48.130Z,3.65
2022-12-04T11:30:07.990Z,3.50
2022-12-04T11:31:21.546Z,3.78
2022-12-04T11:32:33.959Z,3.90
2022-12-04T11:33:52.342Z,3.20
2022-12-04T11:35:23.433Z,3.42
2022-12-04T11:36:36.424Z,4.13
2022-12-04T11:37:56.066Z,3.38
2022-12-04T11:39:15.776Z,3.80
2022-12-04T11:40:27.769Z,3.35
2022-12-04T11:41:39.671Z,3.00
2022-12-04T11:43:03.104Z,3.45
2022-12-04T11:44:40.815Z,7.20
2022-12-04T11:46:06.594Z,3.95
2022-12-04T11:47:22.761Z,5.97
2022-12-04T11:48:44.777Z,3.67
2022-12-04T11:50:16.791Z,3.45
2022-12-04T11:51:28.393Z,4.80
2022-12-04T11:52:59.241Z,4.47
2022-12-04T11:54:19.621Z,4.88
2022-12-04T11:55:40.231Z,5.13
2022-12-04T11:57:05.867Z,5.55
2022-12-04T11:58:23.487Z,4.68
2022-12-04T11:59:38.000Z,5.82
2022-12-04T12:01:02.564Z,4.75
2022-12-04T12:02:32.945Z,4.93
2022-12-04T12:03:55.503Z,5.45
2022-12-04T12:05:13.541Z,4.72
2022-12-04T12:06:31.095Z,4.60
2022-12-04T12:07:42.698Z,5.20
2022-12-04T12:09:12.665Z,5.13
2022-12-04T12:10:45.158Z,4.13
2022-12-04T12:12:02.765Z,8.05
2022-12-04T12:13:37.448Z,5.72
2022-12-04T12:14:57.430Z,5.50
2022-12-04T12:16:14.983Z,10.75
2022-12-04T12:17:37.002Z,6.80
2022-12-04T12:18:48.645Z,6.40
2022-12-04T12:20:04.557Z,7.60
2022-12-04T12:21:24.312Z,7.57
2022-12-04T12:22:41.880Z,7.43
2022-12-04T12:23:56.485Z,7.47
2022-12-04T12:25:34.357Z,7.28
2022-12-04T12:26:48.702Z,6.28
2022-12-04T12:28:01.505Z,7.78
2022-12-04T12:29:25.694Z,6.53
2022-12-04T12:30:48.720Z,8.82
2022-12-04T12:32:10.022Z,6.13
2022-12-04T12:33:23.953Z,10.07
2022-12-04T12:34:35.471Z,20.48
2022-12-04T12:35:47.066Z,7.95
2022-12-04T12:37:01.275Z,6.00
2022-12-04T12:38:18.347Z,5.05
2022-12-04T12:39:40.273Z,4.50
2022-12-04T12:41:01.820Z,4.13
2022-12-04T12:42:17.545Z,5.25
2022-12-04T12:43:31.334Z,5.45
2022-12-04T12:44:42.994Z,9.85
2022-12-04T12:46:10.077Z,9.40
2022-12-04T12:47:25.271Z,11.50
2022-12-04T12:48:58.487Z,10.63
2022-12-04T12:50:15.073Z,10.15
2022-12-04T12:51:38.918Z,9.35
2022-12-04T12:52:50.564Z,9.15
2022-12-04T12:54:09.860Z,8.25
2022-12-04T12:55:23.592Z,6.07
2022-12-04T12:56:46.157Z,6.30
2022-12-04T12:58:04.832Z,9.70
2022-12-04T12:59:19.458Z,4.65
2022-12-04T13:00:32.583Z,5.43
2022-12-04T13:02:00.563Z,12.02
2022-12-04T13:03:33.042Z,7.97
2022-12-04T13:04:46.564Z,8.70
2022-12-04T13:06:00.754Z,8.10
2022-12-04T13:07:15.387Z,8.90
2022-12-04T13:08:32.919Z,6.60
2022-12-04T13:09:53.220Z,5.68
2022-12-04T13:11:12.544Z,7.05
2022-12-04T13:12:24.573Z,8.50
2022-12-04T13:13:39.114Z,7.07
2022-12-04T13:14:50.863Z,7.88
2022-12-04T13:16:08.432Z,7.43
2022-12-04T13:17:24.293Z,6.28
2022-12-04T13:18:39.245Z,7.32
2022-12-04T13:19:54.080Z,6.97
2022-12-04T13:21:07.132Z,6.75
2022-12-04T13:22:24.856Z,7.60
2022-12-04T13:23:36.447Z,6.85
2022-12-04T13:25:00.053Z,8.95
2022-12-04T13:26:20.176Z,7.80
2022-12-04T13:27:34.727Z,8.63
2022-12-04T13:28:52.344Z,8.48
2022-12-04T13:30:06.878Z,5.63
2022-12-04T13:31:27.132Z,7.22
2022-12-04T13:32:48.163Z,6.82
2022-12-04T13:34:07.801Z,9.30
2022-12-04T13:35:25.523Z,8.73
2022-12-04T13:36:57.625Z,10.02
2022-12-04T13:38:09.158Z,11.90
2022-12-04T13:39:29.954Z,7.30
2022-12-04T13:40:48.233Z,6.30
2022-12-04T13:42:04.279Z,7.40
2022-12-04T13:43:28.034Z,7.70
2022-12-04T13:44:40.336Z,9.55
2022-12-04T13:45:53.115Z,9.48
2022-12-04T13:47:06.783Z,8.30
2022-12-04T13:48:47.758Z,10.52
2022-12-04T13:50:08.421Z,6.30
2022-12-04T13:51:38.542Z,5.60
2022-12-04T13:52:50.220Z,7.68
2022-12-04T13:54:22.220Z,7.60
2022-12-04T13:55:38.452Z,12.68
2022-12-04T13:56:55.714Z,15.43
2022-12-04T13:58:10.744Z,10.48
2022-12-04T13:59:31.317Z,8.55
2022-12-04T14:00:43.869Z,8.05
2022-12-04T14:01:56.730Z,9.68
2022-12-04T14:03:28.728Z,11.30
2022-12-04T14:04:44.604Z,13.35
2022-12-04T14:05:56.185Z,11.07
2022-12-04T14:07:07.868Z,8.60
2022-12-04T14:08:19.466Z,9.15
2022-12-04T14:09:37.644Z,8.25
2022-12-04T14:11:03.810Z,9.75
2022-12-04T14:12:16.658Z,9.23
2022-12-04T14:13:29.907Z,10.65
2022-12-04T14:14:58.850Z,12.05
2022-12-04T14:16:22.996Z,13.70
2022-12-04T14:17:36.063Z,15.65
2022-12-04T14:18:57.895Z,12.65
2022-12-04T14:20:29.841Z,11.02
2022-12-04T14:21:42.939Z,9.63
2022-12-04T14:22:54.730Z,10.68
2022-12-04T14:24:15.371Z,9.00
2022-12-04T14:25:35.836Z,10.43
2022-12-04T14:27:10.749Z,12.40
2022-12-04T14:28:25.149Z,15.88
2022-12-04T14:29:44.952Z,10.63
2022-12-04T14:31:13.317Z,11.20
2022-12-04T14:32:27.852Z,10.90
2022-12-04T14:33:43.011Z,10.90
2022-12-04T14:34:55.157Z,11.93
2022-12-04T14:36:15.703Z,11.02
2022-12-04T14:37:30.764Z,10.90
2022-12-04T14:38:44.892Z,12.82
2022-12-04T14:39:57.928Z,11.45
2022-12-04T14:41:09.457Z,11.55
2022-12-04T14:42:41.034Z,11.15
2022-12-04T14:43:52.907Z,11.50
2022-12-04T14:45:07.329Z,10.70
2022-12-04T14:46:24.934Z,11.20
2022-12-04T14:47:45.341Z,13.27
2022-12-04T14:49:15.630Z,14.05
2022-12-04T14:50:30.580Z,14.57
2022-12-04T14:52:02.243Z,16.77
2022-12-04T14:53:17.281Z,11.80
2022-12-04T14:54:33.576Z,13.98
2022-12-04T14:55:54.132Z,8.40
2022-12-04T14:57:18.629Z,8.32
2022-12-04T14:58:31.258Z,8.13
2022-12-04T14:59:45.185Z,7.95
2022-12-04T15:01:01.898Z,7.88
2022-12-04T15:02:17.074Z,7.47
2022-12-04T15:03:30.504Z,6.70
2022-12-04T15:04:46.312Z,7.03
2022-12-04T15:06:02.032Z,6.75
2022-12-04T15:07:23.664Z,7.03
2022-12-04T15:08:35.164Z,6.80
2022-12-04T15:10:15.508Z,7.68
2022-12-04T15:11:45.779Z,9.48
2022-12-04T15:12:57.232Z,15.05
2022-12-04T15:14:14.955Z,10.05
2022-12-04T15:15:27.858Z,13.35
2022-12-04T15:16:40.202Z,9.88
2022-12-04T15:18:02.311Z,10.15
2022-12-04T15:19:18.758Z,8.00
2022-12-04T15:20:38.655Z,12.25
2022-12-04T15:21:52.111Z,13.25
2022-12-04T15:23:04.039Z,15.23
2022-12-04T15:24:23.250Z,12.38
2022-12-04T15:25:42.661Z,11.00
2022-12-04T15:26:54.538Z,11.75
2022-12-04T15:28:12.736Z,9.82
2022-12-04T15:29:28.748Z,13.23
2022-12-04T15:30:41.850Z,12.52
2022-12-04T15:31:58.767Z,14.57
2022-12-04T15:33:21.158Z,11.20
2022-12-04T15:34:43.854Z,11.50
2022-12-04T15:35:58.223Z,10.65
2022-12-04T15:37:12.896Z,9.13
2022-12-04T15:38:24.487Z,9.23
2022-12-04T15:39:38.252Z,8.45
2022-12-04T15:40:55.113Z,9.05
2022-12-04T15:42:22.234Z,8.90
2022-12-04T15:43:43.444Z,9.15
2022-12-04T15:45:01.405Z,8.57
2022-12-04T15:46:13.742Z,9.63
2022-12-04T15:47:26.009Z,7.88
2022-12-04T15:48:37.763Z,8.55
2022-12-04T15:49:49.331Z,8.68
2022-12-04T15:51:06.332Z,7.40
2022-12-04T15:52:20.280Z,7.70
2022-12-04T15:53:35.324Z,8.48
2022-12-04T15:55:07.795Z,8.65
2022-12-04T15:56:22.168Z,8.70
2022-12-04T15:57:36.089Z,8.50
2022-12-04T15:58:56.677Z,9.75
2022-12-04T16:00:22.876Z,7.10
2022-12-04T16:01:41.046Z,8.10
2022-12-04T16:02:53.382Z,10.38
2022-12-04T16:04:05.533Z,14.68
2022-12-04T16:05:26.431Z,14.27
2022-12-04T16:06:51.383Z,9.45
2022-12-04T16:08:25.867Z,8.60
2022-12-04T16:09:37.781Z,8.57
2022-12-04T16:11:01.322Z,7.97
2022-12-04T16:12:23.511Z,6.75
2022-12-04T16:13:40.025Z,7.05
2022-12-04T16:14:56.725Z,7.63
2022-12-04T16:16:14.393Z,6.63
2022-12-04T16:17:31.495Z,6.70
2022-12-04T16:18:45.035Z,7.10
2022-12-04T16:19:59.999Z,7.60
2022-12-04T16:21:22.825Z,6.30
2022-12-04T16:22:36.785Z,6.68
2022-12-04T16:23:53.010Z,5.45
2022-12-04T16:25:06.919Z,8.02
2022-12-04T16:26:20.943Z,11.30
2022-12-04T16:27:34.739Z,17.17
2022-12-04T16:28:51.768Z,19.58
2022-12-04T16:30:04.823Z,18.88
2022-12-04T16:31:21.822Z,14.65
2022-12-04T16:32:39.798Z,15.32
2022-12-04T16:33:55.011Z,11.20
2022-12-04T16:35:13.570Z,11.23
2022-12-04T16:36:26.353Z,13.02
2022-12-04T16:37:41.323Z,12.40
2022-12-04T16:38:53.935Z,12.00
2022-12-04T16:40:09.516Z,14.23
2022-12-04T16:41:28.171Z,15.98
2022-12-04T16:42:41.172Z,15.50